sensor_id;sensor_type;location;lat;lon;timestamp;P1;durP1;ratioP1;P2;durP2;ratioP2
4971;SDS011;2501;51.214;6.768;2023-12-20T00:01:11;8.38;;;4.10;;
4971;SDS011;2501;51.214;6.768;2023-12-20T00:03:39;9.77;;;4.43;;
4971;SDS011;2501;51.214;6.768;2023-12-20T00:06:08;11.60;;;4.45;;
4971;SDS011;2501;51.214;6.768;2023-12-20T00:08:36;7.93;;;5.10;;
4971;SDS011;2501;51.214;6.768;2023-12-20T00:11:07;13.48;;;4.70;;
4971;SDS011;2501;51.214;6.768;2023-12-20T00:13:36;4.47;;;4.07;;
4971;SDS011;2501;51.214;6.768;2023-12-20T00:16:04;12.90;;;5.13;;
4971;SDS011;2501;51.214;6.768;2023-12-20T00:18:33;8.57;;;4.88;;
4971;SDS011;2501;51.214;6.768;2023-12-20T00:21:02;9.33;;;4.13;;
4971;SDS011;2501;51.214;6.768;2023-12-20T00:23:31;8.82;;;4.50;;
4971;SDS011;2501;51.214;6.768;2023-12-20T00:25:59;10.75;;;3.78;;
4971;SDS011;2501;51.214;6.768;2023-12-20T00:28:30;10.45;;;4.50;;
4971;SDS011;2501;51.214;6.768;2023-12-20T00:30:59;8.38;;;4.38;;
4971;SDS011;2501;51.214;6.768;2023-12-20T00:33:27;12.52;;;4.43;;
4971;SDS011;2501;51.214;6.768;2023-12-20T00:35:55;11.13;;;5.13;;
4971;SDS011;2501;51.214;6.768;2023-12-20T00:38:24;12.75;;;5.10;;
4971;SDS011;2501;51.214;6.768;2023-12-20T00:40:52;7.57;;;5.60;;
4971;SDS011;2501;51.214;6.768;2023-12-20T00:43:21;12.75;;;5.97;;
4971;SDS011;2501;51.214;6.768;2023-12-20T00:45:52;13.77;;;5.97;;
4971;SDS011;2501;51.214;6.768;2023-12-20T00:48:20;17.25;;;7.80;;
4971;SDS011;2501;51.214;6.768;2023-12-20T00:50:49;15.07;;;6.68;;
4971;SDS011;2501;51.214;6.768;2023-12-20T00:53:17;14.20;;;7.37;;
4971;SDS011;2501;51.214;6.768;2023-12-20T00:55:45;14.02;;;7.00;;
4971;SDS011;2501;51.214;6.768;2023-12-20T00:58:15;16.77;;;8.05;;
4971;SDS011;2501;51.214;6.768;2023-12-20T01:00:43;14.77;;;7.93;;
4971;SDS011;2501;51.214;6.768;2023-12-20T01:03:14;16.03;;;7.73;;
4971;SDS011;2501;51.214;6.768;2023-12-20T01:05:43;19.33;;;8.07;;
4971;SDS011;2501;51.214;6.768;2023-12-20T01:08:11;13.03;;;7.20;;
4971;SDS011;2501;51.214;6.768;2023-12-20T01:10:40;13.10;;;8.43;;
4971;SDS011;2501;51.214;6.768;2023-12-20T01:13:09;20.83;;;9.40;;
4971;SDS011;2501;51.214;6.768;2023-12-20T01:15:37;19.58;;;9.15;;
4971;SDS011;2501;51.214;6.768;2023-12-20T01:18:06;20.75;;;10.30;;
4971;SDS011;2501;51.214;6.768;2023-12-20T01:20:37;20.37;;;10.07;;
4971;SDS011;2501;51.214;6.768;2023-12-20T01:23:05;18.27;;;8.40;;
4971;SDS011;2501;51.214;6.768;2023-12-20T01:25:37;19.40;;;11.48;;
4971;SDS011;2501;51.214;6.768;2023-12-20T01:28:06;23.48;;;12.00;;
4971;SDS011;2501;51.214;6.768;2023-12-20T01:30:35;21.30;;;11.60;;
4971;SDS011;2501;51.214;6.768;2023-12-20T01:33:03;20.90;;;12.50;;
4971;SDS011;2501;51.214;6.768;2023-12-20T01:35:32;23.45;;;13.55;;
4971;SDS011;2501;51.214;6.768;2023-12-20T01:38:03;22.07;;;12.70;;
4971;SDS011;2501;51.214;6.768;2023-12-20T01:40:32;29.75;;;14.27;;
4971;SDS011;2501;51.214;6.768;2023-12-20T01:43:00;25.67;;;14.93;;
4971;SDS011;2501;51.214;6.768;2023-12-20T01:45:29;21.60;;;12.73;;
4971;SDS011;2501;51.214;6.768;2023-12-20T01:47:58;27.23;;;13.52;;
4971;SDS011;2501;51.214;6.768;2023-12-20T01:50:28;21.13;;;12.18;;
4971;SDS011;2501;51.214;6.768;2023-12-20T01:52:57;21.25;;;11.73;;
4971;SDS011;2501;51.214;6.768;2023-12-20T01:55:32;23.88;;;12.60;;
4971;SDS011;2501;51.214;6.768;2023-12-20T01:58:02;23.48;;;12.13;;
4971;SDS011;2501;51.214;6.768;2023-12-20T02:00:32;24.63;;;11.23;;
4971;SDS011;2501;51.214;6.768;2023-12-20T02:03:02;23.30;;;11.10;;
4971;SDS011;2501;51.214;6.768;2023-12-20T02:05:32;20.15;;;10.63;;
4971;SDS011;2501;51.214;6.768;2023-12-20T02:08:03;23.70;;;9.43;;
4971;SDS011;2501;51.214;6.768;2023-12-20T02:10:34;26.20;;;9.23;;
4971;SDS011;2501;51.214;6.768;2023-12-20T02:13:03;20.67;;;7.75;;
4971;SDS011;2501;51.214;6.768;2023-12-20T02:15:32;18.08;;;7.47;;
4971;SDS011;2501;51.214;6.768;2023-12-20T02:18:02;27.37;;;9.10;;
4971;SDS011;2501;51.214;6.768;2023-12-20T02:20:30;19.33;;;8.80;;
4971;SDS011;2501;51.214;6.768;2023-12-20T02:22:59;22.15;;;9.55;;
4971;SDS011;2501;51.214;6.768;2023-12-20T02:25:27;22.00;;;9.00;;
4971;SDS011;2501;51.214;6.768;2023-12-20T02:27:56;23.40;;;9.30;;
4971;SDS011;2501;51.214;6.768;2023-12-20T02:30:24;19.88;;;8.00;;
4971;SDS011;2501;51.214;6.768;2023-12-20T02:32:53;16.63;;;7.90;;
4971;SDS011;2501;51.214;6.768;2023-12-20T02:35:22;24.67;;;7.90;;
4971;SDS011;2501;51.214;6.768;2023-12-20T02:37:51;17.42;;;6.93;;
4971;SDS011;2501;51.214;6.768;2023-12-20T02:40:22;18.83;;;7.53;;
4971;SDS011;2501;51.214;6.768;2023-12-20T02:42:50;18.77;;;6.63;;
4971;SDS011;2501;51.214;6.768;2023-12-20T02:45:18;15.07;;;5.77;;
4971;SDS011;2501;51.214;6.768;2023-12-20T02:47:47;19.50;;;6.47;;
4971;SDS011;2501;51.214;6.768;2023-12-20T02:50:15;19.27;;;5.72;;
4971;SDS011;2501;51.214;6.768;2023-12-20T02:52:44;14.20;;;5.00;;
4971;SDS011;2501;51.214;6.768;2023-12-20T02:55:13;19.02;;;5.50;;
4971;SDS011;2501;51.214;6.768;2023-12-20T02:57:44;19.23;;;5.22;;
4971;SDS011;2501;51.214;6.768;2023-12-20T03:00:12;20.27;;;5.78;;
4971;SDS011;2501;51.214;6.768;2023-12-20T03:02:41;21.52;;;5.32;;
4971;SDS011;2501;51.214;6.768;2023-12-20T03:05:10;16.73;;;4.60;;
4971;SDS011;2501;51.214;6.768;2023-12-20T03:07:38;24.93;;;4.73;;
4971;SDS011;2501;51.214;6.768;2023-12-20T03:10:07;14.25;;;4.50;;
4971;SDS011;2501;51.214;6.768;2023-12-20T03:12:36;18.13;;;4.55;;
4971;SDS011;2501;51.214;6.768;2023-12-20T03:15:09;16.40;;;3.73;;
4971;SDS011;2501;51.214;6.768;2023-12-20T03:17:38;21.20;;;5.00;;
4971;SDS011;2501;51.214;6.768;2023-12-20T03:20:07;20.55;;;5.10;;
4971;SDS011;2501;51.214;6.768;2023-12-20T03:22:36;22.05;;;5.50;;
4971;SDS011;2501;51.214;6.768;2023-12-20T03:25:04;25.50;;;5.07;;
4971;SDS011;2501;51.214;6.768;2023-12-20T03:27:33;20.13;;;4.75;;
4971;SDS011;2501;51.214;6.768;2023-12-20T03:30:01;20.10;;;5.15;;
4971;SDS011;2501;51.214;6.768;2023-12-20T03:32:32;19.00;;;4.87;;
4971;SDS011;2501;51.214;6.768;2023-12-20T03:35:01;24.10;;;5.75;;
4971;SDS011;2501;51.214;6.768;2023-12-20T03:37:29;23.05;;;5.20;;
4971;SDS011;2501;51.214;6.768;2023-12-20T03:39:58;26.25;;;5.57;;
4971;SDS011;2501;51.214;6.768;2023-12-20T03:42:26;21.55;;;5.15;;
4971;SDS011;2501;51.214;6.768;2023-12-20T03:44:55;19.13;;;5.38;;
4971;SDS011;2501;51.214;6.768;2023-12-20T03:47:23;27.65;;;5.55;;
4971;SDS011;2501;51.214;6.768;2023-12-20T03:49:54;23.85;;;6.07;;
4971;SDS011;2501;51.214;6.768;2023-12-20T03:52:22;25.67;;;5.50;;
4971;SDS011;2501;51.214;6.768;2023-12-20T03:54:51;19.95;;;5.00;;
4971;SDS011;2501;51.214;6.768;2023-12-20T03:57:19;22.08;;;4.70;;
4971;SDS011;2501;51.214;6.768;2023-12-20T03:59:48;19.07;;;5.10;;
4971;SDS011;2501;51.214;6.768;2023-12-20T04:02:16;20.10;;;4.70;;
4971;SDS011;2501;51.214;6.768;2023-12-20T04:04:45;21.58;;;4.60;;
4971;SDS011;2501;51.214;6.768;2023-12-20T04:07:17;17.08;;;5.10;;
4971;SDS011;2501;51.214;6.768;2023-12-20T04:09:45;16.00;;;4.35;;
4971;SDS011;2501;51.214;6.768;2023-12-20T04:12:13;15.48;;;5.30;;
4971;SDS011;2501;51.214;6.768;2023-12-20T04:14:42;19.77;;;4.30;;
4971;SDS011;2501;51.214;6.768;2023-12-20T04:17:10;21.77;;;4.80;;
4971;SDS011;2501;51.214;6.768;2023-12-20T04:19:41;23.02;;;4.50;;
4971;SDS011;2501;51.214;6.768;2023-12-20T04:22:09;16.92;;;4.45;;
4971;SDS011;2501;51.214;6.768;2023-12-20T04:24:40;12.75;;;4.07;;
4971;SDS011;2501;51.214;6.768;2023-12-20T04:27:10;13.15;;;4.40;;
4971;SDS011;2501;51.214;6.768;2023-12-20T04:29:38;21.95;;;5.15;;
4971;SDS011;2501;51.214;6.768;2023-12-20T04:32:07;12.98;;;4.47;;
4971;SDS011;2501;51.214;6.768;2023-12-20T04:34:35;17.90;;;5.10;;
4971;SDS011;2501;51.214;6.768;2023-12-20T04:37:04;18.25;;;5.20;;
4971;SDS011;2501;51.214;6.768;2023-12-20T04:39:32;20.25;;;4.97;;
4971;SDS011;2501;51.214;6.768;2023-12-20T04:42:04;20.47;;;5.67;;
4971;SDS011;2501;51.214;6.768;2023-12-20T04:44:32;17.42;;;4.70;;
4971;SDS011;2501;51.214;6.768;2023-12-20T04:47:01;20.13;;;5.43;;
4971;SDS011;2501;51.214;6.768;2023-12-20T04:49:29;21.42;;;4.68;;
4971;SDS011;2501;51.214;6.768;2023-12-20T04:51:58;17.23;;;5.10;;
4971;SDS011;2501;51.214;6.768;2023-12-20T04:54:26;21.13;;;5.10;;
4971;SDS011;2501;51.214;6.768;2023-12-20T04:56:54;27.83;;;6.50;;
4971;SDS011;2501;51.214;6.768;2023-12-20T04:59:25;12.05;;;5.07;;
4971;SDS011;2501;51.214;6.768;2023-12-20T05:01:54;15.20;;;5.10;;
4971;SDS011;2501;51.214;6.768;2023-12-20T05:04:22;21.80;;;5.25;;
4971;SDS011;2501;51.214;6.768;2023-12-20T05:06:51;14.57;;;5.60;;
4971;SDS011;2501;51.214;6.768;2023-12-20T05:09:19;21.50;;;5.70;;
4971;SDS011;2501;51.214;6.768;2023-12-20T05:11:48;23.15;;;5.68;;
4971;SDS011;2501;51.214;6.768;2023-12-20T05:14:16;16.83;;;4.60;;
4971;SDS011;2501;51.214;6.768;2023-12-20T05:16:47;21.67;;;5.30;;
4971;SDS011;2501;51.214;6.768;2023-12-20T05:19:15;18.95;;;5.28;;
4971;SDS011;2501;51.214;6.768;2023-12-20T05:21:44;16.10;;;5.17;;
4971;SDS011;2501;51.214;6.768;2023-12-20T05:24:12;16.38;;;5.03;;
4971;SDS011;2501;51.214;6.768;2023-12-20T05:26:41;15.10;;;5.50;;
4971;SDS011;2501;51.214;6.768;2023-12-20T05:29:09;20.90;;;5.18;;
4971;SDS011;2501;51.214;6.768;2023-12-20T05:31:37;15.75;;;4.72;;
4971;SDS011;2501;51.214;6.768;2023-12-20T05:34:08;21.48;;;4.90;;
4971;SDS011;2501;51.214;6.768;2023-12-20T05:36:37;22.45;;;4.88;;
4971;SDS011;2501;51.214;6.768;2023-12-20T05:39:06;17.75;;;4.68;;
4971;SDS011;2501;51.214;6.768;2023-12-20T05:41:35;20.85;;;5.32;;
4971;SDS011;2501;51.214;6.768;2023-12-20T05:44:03;20.40;;;5.57;;
4971;SDS011;2501;51.214;6.768;2023-12-20T05:46:32;17.07;;;4.97;;
4971;SDS011;2501;51.214;6.768;2023-12-20T05:49:00;17.52;;;5.10;;
4971;SDS011;2501;51.214;6.768;2023-12-20T05:51:31;23.45;;;5.50;;
4971;SDS011;2501;51.214;6.768;2023-12-20T05:54:00;15.63;;;4.45;;
4971;SDS011;2501;51.214;6.768;2023-12-20T05:56:29;22.10;;;5.45;;
4971;SDS011;2501;51.214;6.768;2023-12-20T05:58:57;21.65;;;4.70;;
4971;SDS011;2501;51.214;6.768;2023-12-20T06:01:26;20.52;;;5.03;;
4971;SDS011;2501;51.214;6.768;2023-12-20T06:03:54;19.98;;;5.10;;
4971;SDS011;2501;51.214;6.768;2023-12-20T06:06:23;21.02;;;5.15;;
4971;SDS011;2501;51.214;6.768;2023-12-20T06:08:54;11.03;;;4.73;;
4971;SDS011;2501;51.214;6.768;2023-12-20T06:11:23;16.10;;;4.97;;
4971;SDS011;2501;51.214;6.768;2023-12-20T06:13:51;17.25;;;5.10;;
4971;SDS011;2501;51.214;6.768;2023-12-20T06:16:20;17.52;;;5.40;;
4971;SDS011;2501;51.214;6.768;2023-12-20T06:18:48;19.67;;;5.32;;
4971;SDS011;2501;51.214;6.768;2023-12-20T06:21:17;18.85;;;4.88;;
4971;SDS011;2501;51.214;6.768;2023-12-20T06:23:46;22.58;;;6.15;;
4971;SDS011;2501;51.214;6.768;2023-12-20T06:26:17;21.95;;;5.50;;
4971;SDS011;2501;51.214;6.768;2023-12-20T06:28:45;17.08;;;5.00;;
4971;SDS011;2501;51.214;6.768;2023-12-20T06:31:14;17.63;;;4.65;;
4971;SDS011;2501;51.214;6.768;2023-12-20T06:33:42;12.60;;;5.05;;
4971;SDS011;2501;51.214;6.768;2023-12-20T06:36:11;11.10;;;4.35;;
4971;SDS011;2501;51.214;6.768;2023-12-20T06:38:40;16.15;;;4.35;;
4971;SDS011;2501;51.214;6.768;2023-12-20T06:41:12;14.70;;;5.07;;
4971;SDS011;2501;51.214;6.768;2023-12-20T06:43:44;24.63;;;4.90;;
4971;SDS011;2501;51.214;6.768;2023-12-20T06:46:12;26.15;;;5.25;;
4971;SDS011;2501;51.214;6.768;2023-12-20T06:48:41;20.80;;;5.95;;
4971;SDS011;2501;51.214;6.768;2023-12-20T06:51:11;22.10;;;5.85;;
4971;SDS011;2501;51.214;6.768;2023-12-20T06:53:40;32.83;;;7.93;;
4971;SDS011;2501;51.214;6.768;2023-12-20T06:56:10;23.92;;;6.28;;
4971;SDS011;2501;51.214;6.768;2023-12-20T06:58:39;28.58;;;5.95;;
4971;SDS011;2501;51.214;6.768;2023-12-20T07:01:13;23.35;;;5.65;;
4971;SDS011;2501;51.214;6.768;2023-12-20T07:03:42;18.35;;;5.45;;
4971;SDS011;2501;51.214;6.768;2023-12-20T07:06:11;21.13;;;5.65;;
4971;SDS011;2501;51.214;6.768;2023-12-20T07:08:41;25.52;;;5.75;;
4971;SDS011;2501;51.214;6.768;2023-12-20T07:11:10;23.80;;;5.47;;
4971;SDS011;2501;51.214;6.768;2023-12-20T07:13:39;20.80;;;5.20;;
4971;SDS011;2501;51.214;6.768;2023-12-20T07:16:07;21.92;;;5.38;;
4971;SDS011;2501;51.214;6.768;2023-12-20T07:18:38;12.50;;;4.20;;
4971;SDS011;2501;51.214;6.768;2023-12-20T07:21:07;20.70;;;4.72;;
4971;SDS011;2501;51.214;6.768;2023-12-20T07:23:35;19.23;;;5.03;;
4971;SDS011;2501;51.214;6.768;2023-12-20T07:26:04;21.13;;;5.40;;
4971;SDS011;2501;51.214;6.768;2023-12-20T07:28:32;12.57;;;5.13;;
4971;SDS011;2501;51.214;6.768;2023-12-20T07:31:01;24.38;;;5.60;;
4971;SDS011;2501;51.214;6.768;2023-12-20T07:33:29;18.98;;;5.70;;
4971;SDS011;2501;51.214;6.768;2023-12-20T07:36:01;23.15;;;5.03;;
4971;SDS011;2501;51.214;6.768;2023-12-20T07:38:30;21.08;;;5.07;;
4971;SDS011;2501;51.214;6.768;2023-12-20T07:40:58;19.00;;;6.35;;
4971;SDS011;2501;51.214;6.768;2023-12-20T07:43:27;19.92;;;5.70;;
4971;SDS011;2501;51.214;6.768;2023-12-20T07:45:55;20.60;;;5.05;;
4971;SDS011;2501;51.214;6.768;2023-12-20T07:48:24;18.50;;;5.72;;
4971;SDS011;2501;51.214;6.768;2023-12-20T07:50:52;21.27;;;6.25;;
4971;SDS011;2501;51.214;6.768;2023-12-20T07:53:23;22.93;;;5.33;;
4971;SDS011;2501;51.214;6.768;2023-12-20T07:55:52;23.48;;;6.22;;
4971;SDS011;2501;51.214;6.768;2023-12-20T07:58:21;21.15;;;5.60;;
4971;SDS011;2501;51.214;6.768;2023-12-20T08:00:49;23.27;;;5.90;;
4971;SDS011;2501;51.214;6.768;2023-12-20T08:03:18;26.80;;;6.20;;
4971;SDS011;2501;51.214;6.768;2023-12-20T08:05:46;26.25;;;6.28;;
4971;SDS011;2501;51.214;6.768;2023-12-20T08:08:15;21.85;;;5.80;;
4971;SDS011;2501;51.214;6.768;2023-12-20T08:10:46;24.42;;;5.57;;
4971;SDS011;2501;51.214;6.768;2023-12-20T08:13:15;18.25;;;5.22;;
4971;SDS011;2501;51.214;6.768;2023-12-20T08:15:43;27.40;;;5.78;;
4971;SDS011;2501;51.214;6.768;2023-12-20T08:18:12;21.70;;;5.80;;
4971;SDS011;2501;51.214;6.768;2023-12-20T08:20:40;23.38;;;5.80;;
4971;SDS011;2501;51.214;6.768;2023-12-20T08:23:09;21.20;;;5.20;;
4971;SDS011;2501;51.214;6.768;2023-12-20T08:25:37;23.58;;;5.60;;
4971;SDS011;2501;51.214;6.768;2023-12-20T08:28:09;24.60;;;6.60;;
4971;SDS011;2501;51.214;6.768;2023-12-20T08:30:37;19.63;;;5.55;;
4971;SDS011;2501;51.214;6.768;2023-12-20T08:33:06;23.70;;;5.38;;
4971;SDS011;2501;51.214;6.768;2023-12-20T08:35:38;27.37;;;6.10;;
4971;SDS011;2501;51.214;6.768;2023-12-20T08:38:06;21.17;;;5.38;;
4971;SDS011;2501;51.214;6.768;2023-12-20T08:40:35;16.43;;;5.40;;
4971;SDS011;2501;51.214;6.768;2023-12-20T08:43:03;27.98;;;6.43;;
4971;SDS011;2501;51.214;6.768;2023-12-20T08:45:34;24.83;;;5.82;;
4971;SDS011;2501;51.214;6.768;2023-12-20T08:48:04;23.63;;;6.10;;
4971;SDS011;2501;51.214;6.768;2023-12-20T08:50:33;28.27;;;5.40;;
4971;SDS011;2501;51.214;6.768;2023-12-20T08:53:02;23.67;;;5.57;;
4971;SDS011;2501;51.214;6.768;2023-12-20T08:55:30;19.60;;;5.63;;
4971;SDS011;2501;51.214;6.768;2023-12-20T08:57:59;21.15;;;5.07;;
4971;SDS011;2501;51.214;6.768;2023-12-20T09:00:27;27.67;;;6.00;;
4971;SDS011;2501;51.214;6.768;2023-12-20T09:02:58;21.05;;;5.00;;
4971;SDS011;2501;51.214;6.768;2023-12-20T09:05:27;21.80;;;5.85;;
4971;SDS011;2501;51.214;6.768;2023-12-20T09:07:56;22.65;;;5.28;;
4971;SDS011;2501;51.214;6.768;2023-12-20T09:10:25;50.05;;;7.68;;
4971;SDS011;2501;51.214;6.768;2023-12-20T09:12:53;21.13;;;5.65;;
4971;SDS011;2501;51.214;6.768;2023-12-20T09:15:22;26.83;;;5.60;;
4971;SDS011;2501;51.214;6.768;2023-12-20T09:17:51;21.40;;;5.20;;
4971;SDS011;2501;51.214;6.768;2023-12-20T09:20:22;23.23;;;6.15;;
4971;SDS011;2501;51.214;6.768;2023-12-20T09:22:52;16.30;;;5.50;;
4971;SDS011;2501;51.214;6.768;2023-12-20T09:25:21;28.08;;;5.40;;
4971;SDS011;2501;51.214;6.768;2023-12-20T09:27:51;23.10;;;5.72;;
4971;SDS011;2501;51.214;6.768;2023-12-20T09:30:20;22.85;;;4.97;;
4971;SDS011;2501;51.214;6.768;2023-12-20T09:32:48;21.50;;;5.50;;
4971;SDS011;2501;51.214;6.768;2023-12-20T09:35:17;17.55;;;5.35;;
4971;SDS011;2501;51.214;6.768;2023-12-20T09:37:48;20.53;;;4.37;;
4971;SDS011;2501;51.214;6.768;2023-12-20T09:40:19;14.33;;;4.33;;
4971;SDS011;2501;51.214;6.768;2023-12-20T09:43:08;19.50;;;5.07;;
4971;SDS011;2501;51.214;6.768;2023-12-20T09:45:55;18.23;;;5.63;;
4971;SDS011;2501;51.214;6.768;2023-12-20T09:48:29;22.23;;;4.45;;
4971;SDS011;2501;51.214;6.768;2023-12-20T09:50:59;18.42;;;3.38;;
4971;SDS011;2501;51.214;6.768;2023-12-20T09:53:30;14.15;;;3.70;;
4971;SDS011;2501;51.214;6.768;2023-12-20T09:56:01;22.25;;;4.68;;
4971;SDS011;2501;51.214;6.768;2023-12-20T09:58:31;17.23;;;3.85;;
4971;SDS011;2501;51.214;6.768;2023-12-20T10:00:59;14.18;;;3.65;;
4971;SDS011;2501;51.214;6.768;2023-12-20T10:03:29;24.20;;;4.00;;
4971;SDS011;2501;51.214;6.768;2023-12-20T10:05:59;17.30;;;3.95;;
4971;SDS011;2501;51.214;6.768;2023-12-20T10:08:31;19.08;;;4.00;;
4971;SDS011;2501;51.214;6.768;2023-12-20T10:11:00;22.63;;;4.10;;
4971;SDS011;2501;51.214;6.768;2023-12-20T10:13:29;26.23;;;4.10;;
4971;SDS011;2501;51.214;6.768;2023-12-20T10:15:58;15.83;;;4.40;;
4971;SDS011;2501;51.214;6.768;2023-12-20T10:18:28;15.20;;;3.50;;
4971;SDS011;2501;51.214;6.768;2023-12-20T10:20:57;12.90;;;3.97;;
4971;SDS011;2501;51.214;6.768;2023-12-20T10:23:26;15.10;;;3.60;;
4971;SDS011;2501;51.214;6.768;2023-12-20T10:26:00;19.35;;;4.20;;
4971;SDS011;2501;51.214;6.768;2023-12-20T10:28:32;13.82;;;3.60;;
4971;SDS011;2501;51.214;6.768;2023-12-20T10:31:02;16.63;;;4.25;;
4971;SDS011;2501;51.214;6.768;2023-12-20T10:33:31;22.25;;;4.45;;
4971;SDS011;2501;51.214;6.768;2023-12-20T10:36:00;13.80;;;4.40;;
4971;SDS011;2501;51.214;6.768;2023-12-20T10:38:28;20.67;;;4.93;;
4971;SDS011;2501;51.214;6.768;2023-12-20T10:40:59;19.50;;;4.35;;
4971;SDS011;2501;51.214;6.768;2023-12-20T10:43:32;20.52;;;4.60;;
4971;SDS011;2501;51.214;6.768;2023-12-20T10:46:03;20.10;;;4.00;;
4971;SDS011;2501;51.214;6.768;2023-12-20T10:48:32;19.27;;;3.80;;
4971;SDS011;2501;51.214;6.768;2023-12-20T10:51:00;16.80;;;4.40;;
4971;SDS011;2501;51.214;6.768;2023-12-20T10:53:29;15.80;;;4.07;;
4971;SDS011;2501;51.214;6.768;2023-12-20T10:56:02;10.15;;;3.83;;
4971;SDS011;2501;51.214;6.768;2023-12-20T10:58:32;13.60;;;4.32;;
4971;SDS011;2501;51.214;6.768;2023-12-20T11:01:01;21.95;;;4.10;;
4971;SDS011;2501;51.214;6.768;2023-12-20T11:03:31;14.00;;;3.87;;
4971;SDS011;2501;51.214;6.768;2023-12-20T11:06:05;13.52;;;3.25;;
4971;SDS011;2501;51.214;6.768;2023-12-20T11:08:45;19.40;;;3.50;;
4971;SDS011;2501;51.214;6.768;2023-12-20T11:11:23;18.80;;;4.32;;
4971;SDS011;2501;51.214;6.768;2023-12-20T11:13:59;14.52;;;3.85;;
4971;SDS011;2501;51.214;6.768;2023-12-20T11:16:31;17.35;;;4.20;;
4971;SDS011;2501;51.214;6.768;2023-12-20T11:19:04;13.95;;;3.65;;
4971;SDS011;2501;51.214;6.768;2023-12-20T11:21:30;14.88;;;4.78;;
4971;SDS011;2501;51.214;6.768;2023-12-20T11:23:59;15.13;;;3.92;;
4971;SDS011;2501;51.214;6.768;2023-12-20T11:26:29;21.17;;;4.28;;
4971;SDS011;2501;51.214;6.768;2023-12-20T11:31:56;28.40;;;4.90;;
4971;SDS011;2501;51.214;6.768;2023-12-20T11:34:27;17.70;;;4.40;;
4971;SDS011;2501;51.214;6.768;2023-12-20T11:36:59;20.45;;;3.60;;
4971;SDS011;2501;51.214;6.768;2023-12-20T11:39:28;17.02;;;4.35;;
4971;SDS011;2501;51.214;6.768;2023-12-20T11:42:06;14.25;;;4.32;;
4971;SDS011;2501;51.214;6.768;2023-12-20T11:44:36;11.35;;;3.75;;
4971;SDS011;2501;51.214;6.768;2023-12-20T11:47:04;19.93;;;4.20;;
4971;SDS011;2501;51.214;6.768;2023-12-20T11:49:33;12.07;;;3.20;;
4971;SDS011;2501;51.214;6.768;2023-12-20T11:52:02;19.92;;;4.40;;
4971;SDS011;2501;51.214;6.768;2023-12-20T11:54:31;23.83;;;4.45;;
4971;SDS011;2501;51.214;6.768;2023-12-20T11:56:59;17.33;;;4.37;;
4971;SDS011;2501;51.214;6.768;2023-12-20T11:59:31;16.55;;;3.30;;
4971;SDS011;2501;51.214;6.768;2023-12-20T12:01:59;16.33;;;4.82;;
4971;SDS011;2501;51.214;6.768;2023-12-20T12:04:28;22.77;;;4.53;;
4971;SDS011;2501;51.214;6.768;2023-12-20T12:06:57;17.92;;;4.55;;
4971;SDS011;2501;51.214;6.768;2023-12-20T12:09:25;18.98;;;4.63;;
4971;SDS011;2501;51.214;6.768;2023-12-20T12:11:54;20.10;;;4.30;;
4971;SDS011;2501;51.214;6.768;2023-12-20T12:14:22;12.77;;;3.67;;
4971;SDS011;2501;51.214;6.768;2023-12-20T12:16:55;16.30;;;4.00;;
4971;SDS011;2501;51.214;6.768;2023-12-20T12:19:24;12.32;;;4.90;;
4971;SDS011;2501;51.214;6.768;2023-12-20T12:22:03;17.38;;;4.47;;
4971;SDS011;2501;51.214;6.768;2023-12-20T12:24:35;12.77;;;3.73;;
4971;SDS011;2501;51.214;6.768;2023-12-20T12:27:05;13.48;;;4.10;;
4971;SDS011;2501;51.214;6.768;2023-12-20T12:29:34;17.65;;;4.30;;
4971;SDS011;2501;51.214;6.768;2023-12-20T12:32:09;11.25;;;3.53;;
4971;SDS011;2501;51.214;6.768;2023-12-20T12:34:38;12.23;;;3.85;;
4971;SDS011;2501;51.214;6.768;2023-12-20T12:37:08;13.98;;;4.50;;
4971;SDS011;2501;51.214;6.768;2023-12-20T12:39:37;13.07;;;4.00;;
4971;SDS011;2501;51.214;6.768;2023-12-20T12:42:06;20.10;;;3.88;;
4971;SDS011;2501;51.214;6.768;2023-12-20T12:44:35;16.35;;;4.00;;
4971;SDS011;2501;51.214;6.768;2023-12-20T12:47:03;23.00;;;4.75;;
4971;SDS011;2501;51.214;6.768;2023-12-20T12:49:42;14.55;;;3.70;;
4971;SDS011;2501;51.214;6.768;2023-12-20T12:52:11;24.83;;;4.85;;
4971;SDS011;2501;51.214;6.768;2023-12-20T12:54:47;16.83;;;4.40;;
4971;SDS011;2501;51.214;6.768;2023-12-20T12:57:20;16.25;;;3.95;;
4971;SDS011;2501;51.214;6.768;2023-12-20T12:59:49;18.80;;;4.90;;
4971;SDS011;2501;51.214;6.768;2023-12-20T13:02:19;19.15;;;4.20;;
4971;SDS011;2501;51.214;6.768;2023-12-20T13:04:54;14.40;;;4.72;;
4971;SDS011;2501;51.214;6.768;2023-12-20T13:07:36;12.88;;;4.70;;
4971;SDS011;2501;51.214;6.768;2023-12-20T13:10:06;15.60;;;4.38;;
4971;SDS011;2501;51.214;6.768;2023-12-20T13:12:36;12.83;;;4.53;;
4971;SDS011;2501;51.214;6.768;2023-12-20T13:15:06;22.42;;;5.25;;
4971;SDS011;2501;51.214;6.768;2023-12-20T13:17:37;20.30;;;5.40;;
4971;SDS011;2501;51.214;6.768;2023-12-20T13:20:10;18.67;;;5.35;;
4971;SDS011;2501;51.214;6.768;2023-12-20T13:22:39;24.25;;;5.22;;
4971;SDS011;2501;51.214;6.768;2023-12-20T13:25:08;16.70;;;4.97;;
4971;SDS011;2501;51.214;6.768;2023-12-20T13:27:36;18.73;;;4.45;;
4971;SDS011;2501;51.214;6.768;2023-12-20T13:30:05;14.50;;;5.10;;
4971;SDS011;2501;51.214;6.768;2023-12-20T13:32:34;16.52;;;5.30;;
4971;SDS011;2501;51.214;6.768;2023-12-20T13:35:03;18.30;;;5.40;;
4971;SDS011;2501;51.214;6.768;2023-12-20T13:37:34;17.88;;;5.00;;
4971;SDS011;2501;51.214;6.768;2023-12-20T13:40:04;19.08;;;5.45;;
4971;SDS011;2501;51.214;6.768;2023-12-20T13:42:33;16.17;;;3.78;;
4971;SDS011;2501;51.214;6.768;2023-12-20T13:45:02;10.98;;;4.95;;
4971;SDS011;2501;51.214;6.768;2023-12-20T13:47:31;17.13;;;5.63;;
4971;SDS011;2501;51.214;6.768;2023-12-20T13:50:00;15.15;;;5.18;;
4971;SDS011;2501;51.214;6.768;2023-12-20T13:52:29;13.70;;;4.63;;
4971;SDS011;2501;51.214;6.768;2023-12-20T13:55:00;21.58;;;5.53;;
4971;SDS011;2501;51.214;6.768;2023-12-20T13:57:30;10.95;;;4.28;;
4971;SDS011;2501;51.214;6.768;2023-12-20T13:59:59;14.85;;;5.30;;
4971;SDS011;2501;51.214;6.768;2023-12-20T14:02:28;18.92;;;5.60;;
4971;SDS011;2501;51.214;6.768;2023-12-20T14:04:59;15.55;;;4.72;;
4971;SDS011;2501;51.214;6.768;2023-12-20T14:07:28;24.53;;;5.53;;
4971;SDS011;2501;51.214;6.768;2023-12-20T14:09:56;22.35;;;5.25;;
4971;SDS011;2501;51.214;6.768;2023-12-20T14:12:29;25.73;;;5.80;;
4971;SDS011;2501;51.214;6.768;2023-12-20T14:15:01;15.60;;;4.45;;
4971;SDS011;2501;51.214;6.768;2023-12-20T14:17:34;16.40;;;4.97;;
4971;SDS011;2501;51.214;6.768;2023-12-20T14:20:03;18.13;;;5.20;;
4971;SDS011;2501;51.214;6.768;2023-12-20T14:22:33;15.57;;;4.80;;
4971;SDS011;2501;51.214;6.768;2023-12-20T14:25:07;16.90;;;5.33;;
4971;SDS011;2501;51.214;6.768;2023-12-20T14:27:36;16.38;;;5.10;;
4971;SDS011;2501;51.214;6.768;2023-12-20T14:30:06;24.02;;;4.70;;
4971;SDS011;2501;51.214;6.768;2023-12-20T14:32:35;23.85;;;5.15;;
4971;SDS011;2501;51.214;6.768;2023-12-20T14:35:05;18.38;;;4.80;;
4971;SDS011;2501;51.214;6.768;2023-12-20T14:37:34;16.92;;;4.60;;
4971;SDS011;2501;51.214;6.768;2023-12-20T14:40:07;18.23;;;4.38;;
4971;SDS011;2501;51.214;6.768;2023-12-20T14:42:40;13.40;;;4.43;;
4971;SDS011;2501;51.214;6.768;2023-12-20T14:45:09;19.70;;;4.78;;
4971;SDS011;2501;51.214;6.768;2023-12-20T14:47:38;12.35;;;4.30;;
4971;SDS011;2501;51.214;6.768;2023-12-20T14:50:07;10.80;;;4.60;;
4971;SDS011;2501;51.214;6.768;2023-12-20T14:52:37;20.53;;;5.40;;
4971;SDS011;2501;51.214;6.768;2023-12-20T14:55:08;15.02;;;4.78;;
4971;SDS011;2501;51.214;6.768;2023-12-20T14:57:37;12.57;;;4.40;;
4971;SDS011;2501;51.214;6.768;2023-12-20T15:00:06;12.77;;;4.50;;
4971;SDS011;2501;51.214;6.768;2023-12-20T15:02:35;12.70;;;4.15;;
4971;SDS011;2501;51.214;6.768;2023-12-20T15:05:03;16.55;;;4.40;;
4971;SDS011;2501;51.214;6.768;2023-12-20T15:07:32;13.48;;;3.70;;
4971;SDS011;2501;51.214;6.768;2023-12-20T15:10:01;15.00;;;4.40;;
4971;SDS011;2501;51.214;6.768;2023-12-20T15:12:32;11.48;;;4.10;;
4971;SDS011;2501;51.214;6.768;2023-12-20T15:15:01;14.35;;;4.40;;
4971;SDS011;2501;51.214;6.768;2023-12-20T15:17:30;17.08;;;4.13;;